sensor_id;sensor_type;location;lat;lon;timestamp;temperature;humidity
40534;DHT22;26233;51.894;10.192;2022-10-03T00:00:00;14.80;47.40
40534;DHT22;26233;51.894;10.192;2022-10-03T00:03:11;14.80;47.30
40534;DHT22;26233;51.894;10.192;2022-10-03T00:06:05;14.80;47.40
40534;DHT22;26233;51.894;10.192;2022-10-03T00:08:59;14.80;47.40
40534;DHT22;26233;51.894;10.192;2022-10-03T00:11:42;14.80;47.50
40534;DHT22;26233;51.894;10.192;2022-10-03T00:14:26;14.80;47.40
40534;DHT22;26233;51.894;10.192;2022-10-03T00:17:05;14.80;47.40
40534;DHT22;26233;51.894;10.192;2022-10-03T00:19:43;14.80;47.40
40534;DHT22;26233;51.894;10.192;2022-10-03T00:22:24;14.70;48.00
40534;DHT22;26233;51.894;10.192;2022-10-03T00:25:12;14.70;47.40
40534;DHT22;26233;51.894;10.192;2022-10-03T00:27:54;14.80;47.50
40534;DHT22;26233;51.894;10.192;2022-10-03T00:30:46;14.70;47.50
40534;DHT22;26233;51.894;10.192;2022-10-03T00:33:25;14.80;47.50
40534;DHT22;26233;51.894;10.192;2022-10-03T00:36:05;14.70;47.50
40534;DHT22;26233;51.894;10.192;2022-10-03T00:38:50;14.80;47.50
40534;DHT22;26233;51.894;10.192;2022-10-03T00:48:13;14.80;47.70
40534;DHT22;26233;51.894;10.192;2022-10-03T00:51:07;14.70;47.40
40534;DHT22;26233;51.894;10.192;2022-10-03T00:53:55;14.80;47.60
40534;DHT22;26233;51.894;10.192;2022-10-03T00:56:53;14.70;47.50
40534;DHT22;26233;51.894;10.192;2022-10-03T00:59:37;14.80;47.70
40534;DHT22;26233;51.894;10.192;2022-10-03T01:02:24;14.70;47.50
40534;DHT22;26233;51.894;10.192;2022-10-03T01:05:08;14.70;47.50
40534;DHT22;26233;51.894;10.192;2022-10-03T01:07:57;14.80;47.50
40534;DHT22;26233;51.894;10.192;2022-10-03T01:10:52;14.70;47.70
40534;DHT22;26233;51.894;10.192;2022-10-03T01:13:38;14.80;47.60
40534;DHT22;26233;51.894;10.192;2022-10-03T01:16:21;14.70;47.60
40534;DHT22;26233;51.894;10.192;2022-10-03T01:18:59;14.70;47.50
40534;DHT22;26233;51.894;10.192;2022-10-03T01:21:38;14.70;47.60
40534;DHT22;26233;51.894;10.192;2022-10-03T01:27:13;14.70;47.60
40534;DHT22;26233;51.894;10.192;2022-10-03T01:29:49;14.70;47.60
40534;DHT22;26233;51.894;10.192;2022-10-03T01:32:43;14.70;47.60
40534;DHT22;26233;51.894;10.192;2022-10-03T01:35:30;14.70;47.70
40534;DHT22;26233;51.894;10.192;2022-10-03T01:38:09;14.70;47.70
40534;DHT22;26233;51.894;10.192;2022-10-03T01:40:49;14.60;47.60
40534;DHT22;26233;51.894;10.192;2022-10-03T01:43:21;14.70;47.70
40534;DHT22;26233;51.894;10.192;2022-10-03T01:46:04;14.60;47.70
40534;DHT22;26233;51.894;10.192;2022-10-03T01:48:42;14.70;47.90
40534;DHT22;26233;51.894;10.192;2022-10-03T01:51:19;14.70;47.90
40534;DHT22;26233;51.894;10.192;2022-10-03T01:54:00;14.70;47.90
40534;DHT22;26233;51.894;10.192;2022-10-03T01:56:36;14.70;48.00
40534;DHT22;26233;51.894;10.192;2022-10-03T01:59:14;14.70;47.90
40534;DHT22;26233;51.894;10.192;2022-10-03T02:01:49;14.70;47.90
40534;DHT22;26233;51.894;10.192;2022-10-03T02:04:34;14.70;47.90
40534;DHT22;26233;51.894;10.192;2022-10-03T02:07:11;14.70;48.00
40534;DHT22;26233;51.894;10.192;2022-10-03T02:09:50;14.70;48.00
40534;DHT22;26233;51.894;10.192;2022-10-03T02:12:27;14.70;48.00
40534;DHT22;26233;51.894;10.192;2022-10-03T02:15:04;14.70;48.00
40534;DHT22;26233;51.894;10.192;2022-10-03T02:17:50;14.70;48.00
40534;DHT22;26233;51.894;10.192;2022-10-03T02:20:33;14.70;48.10
40534;DHT22;26233;51.894;10.192;2022-10-03T02:23:24;14.80;48.20
40534;DHT22;26233;51.894;10.192;2022-10-03T02:26:19;14.70;48.20
40534;DHT22;26233;51.894;10.192;2022-10-03T02:29:34;14.70;48.30
40534;DHT22;26233;51.894;10.192;2022-10-03T02:36:14;14.70;48.40
40534;DHT22;26233;51.894;10.192;2022-10-03T02:42:24;14.70;48.40
40534;DHT22;26233;51.894;10.192;2022-10-03T02:45:17;14.70;48.40
40534;DHT22;26233;51.894;10.192;2022-10-03T02:48:47;14.70;48.40
40534;DHT22;26233;51.894;10.192;2022-10-03T02:54:56;14.70;48.50
40534;DHT22;26233;51.894;10.192;2022-10-03T02:57:54;14.70;48.50
40534;DHT22;26233;51.894;10.192;2022-10-03T03:01:12;14.70;48.50
40534;DHT22;26233;51.894;10.192;2022-10-03T03:04:11;14.60;48.50
40534;DHT22;26233;51.894;10.192;2022-10-03T03:07:08;14.60;48.40
40534;DHT22;26233;51.894;10.192;2022-10-03T03:16:36;14.60;48.60
40534;DHT22;26233;51.894;10.192;2022-10-03T03:19:39;14.60;48.70
40534;DHT22;26233;51.894;10.192;2022-10-03T03:22:32;14.60;48.70
40534;DHT22;26233;51.894;10.192;2022-10-03T03:25:19;14.60;48.70
40534;DHT22;26233;51.894;10.192;2022-10-03T03:28:06;14.60;48.80
40534;DHT22;26233;51.894;10.192;2022-10-03T03:30:43;14.50;48.60
40534;DHT22;26233;51.894;10.192;2022-10-03T03:33:24;14.50;48.60
40534;DHT22;26233;51.894;10.192;2022-10-03T03:36:01;14.50;48.70
40534;DHT22;26233;51.894;10.192;2022-10-03T03:38:39;14.50;48.70
40534;DHT22;26233;51.894;10.192;2022-10-03T03:41:41;14.50;48.70
40534;DHT22;26233;51.894;10.192;2022-10-03T03:44:43;14.50;49.00
40534;DHT22;26233;51.894;10.192;2022-10-03T03:47:34;14.50;48.90
40534;DHT22;26233;51.894;10.192;2022-10-03T03:50:24;14.50;49.00
40534;DHT22;26233;51.894;10.192;2022-10-03T03:53:23;14.50;49.00
40534;DHT22;26233;51.894;10.192;2022-10-03T03:56:23;14.50;49.20
40534;DHT22;26233;51.894;10.192;2022-10-03T03:59:08;14.50;49.00
40534;DHT22;26233;51.894;10.192;2022-10-03T04:02:21;14.50;48.90
40534;DHT22;26233;51.894;10.192;2022-10-03T04:05:11;14.50;49.10
40534;DHT22;26233;51.894;10.192;2022-10-03T04:07:50;14.50;49.00
40534;DHT22;26233;51.894;10.192;2022-10-03T04:10:31;14.50;48.90
40534;DHT22;26233;51.894;10.192;2022-10-03T04:13:36;14.50;48.90
40534;DHT22;26233;51.894;10.192;2022-10-03T04:16:35;14.50;49.10
40534;DHT22;26233;51.894;10.192;2022-10-03T04:19:43;14.50;49.00
40534;DHT22;26233;51.894;10.192;2022-10-03T04:22:36;14.50;49.00
40534;DHT22;26233;51.894;10.192;2022-10-03T04:28:33;14.50;49.10
40534;DHT22;26233;51.894;10.192;2022-10-03T04:31:24;14.40;49.10
40534;DHT22;26233;51.894;10.192;2022-10-03T04:34:08;14.40;49.00
40534;DHT22;26233;51.894;10.192;2022-10-03T04:37:10;14.50;49.10
40534;DHT22;26233;51.894;10.192;2022-10-03T04:40:01;14.40;49.20
40534;DHT22;26233;51.894;10.192;2022-10-03T04:42:48;14.40;49.00
40534;DHT22;26233;51.894;10.192;2022-10-03T04:45:38;14.40;49.10
40534;DHT22;26233;51.894;10.192;2022-10-03T04:48:29;14.40;49.00
40534;DHT22;26233;51.894;10.192;2022-10-03T04:51:07;14.40;49.00
40534;DHT22;26233;51.894;10.192;2022-10-03T04:53:48;14.40;48.90
40534;DHT22;26233;51.894;10.192;2022-10-03T04:59:41;14.40;49.00
40534;DHT22;26233;51.894;10.192;2022-10-03T05:02:21;14.40;49.20
40534;DHT22;26233;51.894;10.192;2022-10-03T05:05:07;14.40;49.00
40534;DHT22;26233;51.894;10.192;2022-10-03T05:08:01;14.30;49.00
40534;DHT22;26233;51.894;10.192;2022-10-03T05:10:53;14.30;49.00
40534;DHT22;26233;51.894;10.192;2022-10-03T05:13:32;14.30;49.10
40534;DHT22;26233;51.894;10.192;2022-10-03T05:16:13;14.30;49.10
40534;DHT22;26233;51.894;10.192;2022-10-03T05:18:46;14.30;49.10
40534;DHT22;26233;51.894;10.192;2022-10-03T05:21:27;14.40;49.20
40534;DHT22;26233;51.894;10.192;2022-10-03T05:24:03;14.30;49.30
40534;DHT22;26233;51.894;10.192;2022-10-03T05:26:43;14.30;49.20
40534;DHT22;26233;51.894;10.192;2022-10-03T05:29:23;14.30;49.20
40534;DHT22;26233;51.894;10.192;2022-10-03T05:32:08;14.30;49.30
40534;DHT22;26233;51.894;10.192;2022-10-03T05:34:51;14.30;49.40
40534;DHT22;26233;51.894;10.192;2022-10-03T05:37:49;14.30;49.30
40534;DHT22;26233;51.894;10.192;2022-10-03T05:40:34;14.30;49.40
40534;DHT22;26233;51.894;10.192;2022-10-03T05:43:26;14.30;49.20
40534;DHT22;26233;51.894;10.192;2022-10-03T05:46:05;14.30;49.40
40534;DHT22;26233;51.894;10.192;2022-10-03T05:48:47;14.30;49.30
40534;DHT22;26233;51.894;10.192;2022-10-03T05:57:42;14.30;49.50
40534;DHT22;26233;51.894;10.192;2022-10-03T06:00:35;14.30;49.50
40534;DHT22;26233;51.894;10.192;2022-10-03T06:03:34;14.30;49.50
40534;DHT22;26233;51.894;10.192;2022-10-03T06:06:33;14.30;49.70
40534;DHT22;26233;51.894;10.192;2022-10-03T06:09:40;14.30;49.70
40534;DHT22;26233;51.894;10.192;2022-10-03T06:12:29;14.30;49.80
40534;DHT22;26233;51.894;10.192;2022-10-03T06:15:18;14.30;49.60
40534;DHT22;26233;51.894;10.192;2022-10-03T06:18:00;14.40;49.70
40534;DHT22;26233;51.894;10.192;2022-10-03T06:24:19;14.40;49.80
40534;DHT22;26233;51.894;10.192;2022-10-03T06:30:49;14.50;49.70
40534;DHT22;26233;51.894;10.192;2022-10-03T06:33:59;14.50;50.30
40534;DHT22;26233;51.894;10.192;2022-10-03T06:36:53;14.50;49.90
40534;DHT22;26233;51.894;10.192;2022-10-03T06:43:32;14.60;49.90
40534;DHT22;26233;51.894;10.192;2022-10-03T06:46:47;14.70;49.90
40534;DHT22;26233;51.894;10.192;2022-10-03T06:49:40;14.70;49.80
40534;DHT22;26233;51.894;10.192;2022-10-03T06:52:26;14.80;49.90
40534;DHT22;26233;51.894;10.192;2022-10-03T06:55:28;14.80;49.80
40534;DHT22;26233;51.894;10.192;2022-10-03T06:58:50;14.90;49.80
40534;DHT22;26233;51.894;10.192;2022-10-03T07:05:09;14.90;49.60
40534;DHT22;26233;51.894;10.192;2022-10-03T07:08:24;14.90;49.60
40534;DHT22;26233;51.894;10.192;2022-10-03T07:11:21;15.00;49.70
40534;DHT22;26233;51.894;10.192;2022-10-03T07:14:12;15.00;49.60
40534;DHT22;26233;51.894;10.192;2022-10-03T07:17:02;15.00;49.70
40534;DHT22;26233;51.894;10.192;2022-10-03T07:19:59;15.00;49.70
40534;DHT22;26233;51.894;10.192;2022-10-03T07:23:09;15.10;49.90
40534;DHT22;26233;51.894;10.192;2022-10-03T07:29:28;15.20;49.80
40534;DHT22;26233;51.894;10.192;2022-10-03T07:35:51;15.30;49.70
40534;DHT22;26233;51.894;10.192;2022-10-03T07:45:10;15.40;49.60
40534;DHT22;26233;51.894;10.192;2022-10-03T07:48:24;15.50;49.60
40534;DHT22;26233;51.894;10.192;2022-10-03T07:51:15;15.50;49.50
40534;DHT22;26233;51.894;10.192;2022-10-03T07:54:20;15.50;49.50
40534;DHT22;26233;51.894;10.192;2022-10-03T07:57:00;15.60;49.90
40534;DHT22;26233;51.894;10.192;2022-10-03T08:00:15;15.60;50.20
40534;DHT22;26233;51.894;10.192;2022-10-03T08:06:21;15.60;49.50
40534;DHT22;26233;51.894;10.192;2022-10-03T08:09:10;15.70;49.60
40534;DHT22;26233;51.894;10.192;2022-10-03T08:15:09;15.70;49.70
40534;DHT22;26233;51.894;10.192;2022-10-03T08:21:19;15.80;49.50
40534;DHT22;26233;51.894;10.192;2022-10-03T08:24:22;15.80;49.50
40534;DHT22;26233;51.894;10.192;2022-10-03T08:27:12;15.80;49.30
40534;DHT22;26233;51.894;10.192;2022-10-03T08:30:21;15.80;49.90
40534;DHT22;26233;51.894;10.192;2022-10-03T08:33:13;15.80;49.50
40534;DHT22;26233;51.894;10.192;2022-10-03T08:39:04;15.90;49.80
40534;DHT22;26233;51.894;10.192;2022-10-03T08:45:26;16.00;49.60
40534;DHT22;26233;51.894;10.192;2022-10-03T08:51:51;16.10;49.50
40534;DHT22;26233;51.894;10.192;2022-10-03T08:54:56;16.10;49.40
40534;DHT22;26233;51.894;10.192;2022-10-03T08:58:25;16.10;49.40
40534;DHT22;26233;51.894;10.192;2022-10-03T09:01:21;16.10;49.40
40534;DHT22;26233;51.894;10.192;2022-10-03T09:04:41;16.10;49.40
40534;DHT22;26233;51.894;10.192;2022-10-03T09:14:09;16.20;49.90
40534;DHT22;26233;51.894;10.192;2022-10-03T09:17:09;16.30;50.00
40534;DHT22;26233;51.894;10.192;2022-10-03T09:20:18;16.40;50.10
40534;DHT22;26233;51.894;10.192;2022-10-03T09:23:19;16.60;50.10
40534;DHT22;26233;51.894;10.192;2022-10-03T09:26:16;16.70;49.80
40534;DHT22;26233;51.894;10.192;2022-10-03T09:29:28;16.80;49.80
40534;DHT22;26233;51.894;10.192;2022-10-03T09:35:48;17.00;49.50
40534;DHT22;26233;51.894;10.192;2022-10-03T09:38:46;17.10;49.50
40534;DHT22;26233;51.894;10.192;2022-10-03T09:41:35;17.20;49.60
40534;DHT22;26233;51.894;10.192;2022-10-03T09:47:45;17.40;49.50
40534;DHT22;26233;51.894;10.192;2022-10-03T09:50:46;17.50;49.30
40534;DHT22;26233;51.894;10.192;2022-10-03T09:53:35;17.60;49.30
40534;DHT22;26233;51.894;10.192;2022-10-03T09:59:39;17.80;48.80
40534;DHT22;26233;51.894;10.192;2022-10-03T10:05:56;17.70;48.10
40534;DHT22;26233;51.894;10.192;2022-10-03T10:25:18;17.30;48.00
40534;DHT22;26233;51.894;10.192;2022-10-03T10:28:21;17.20;48.00
40534;DHT22;26233;51.894;10.192;2022-10-03T10:31:31;17.10;48.10
40534;DHT22;26233;51.894;10.192;2022-10-03T10:34:50;17.20;48.90
40534;DHT22;26233;51.894;10.192;2022-10-03T10:37:58;17.40;49.40
40534;DHT22;26233;51.894;10.192;2022-10-03T10:41:04;17.80;50.50
40534;DHT22;26233;51.894;10.192;2022-10-03T10:44:23;18.30;50.70
40534;DHT22;26233;51.894;10.192;2022-10-03T10:51:26;19.20;50.10
40534;DHT22;26233;51.894;10.192;2022-10-03T10:54:31;19.50;49.10
40534;DHT22;26233;51.894;10.192;2022-10-03T10:57:39;19.70;48.20
40534;DHT22;26233;51.894;10.192;2022-10-03T11:00:31;19.70;47.70
40534;DHT22;26233;51.894;10.192;2022-10-03T11:07:01;19.40;46.80
40534;DHT22;26233;51.894;10.192;2022-10-03T11:13:31;18.90;46.30
40534;DHT22;26233;51.894;10.192;2022-10-03T11:17:03;18.80;46.40
40534;DHT22;26233;51.894;10.192;2022-10-03T11:23:41;18.30;46.60
40534;DHT22;26233;51.894;10.192;2022-10-03T11:30:21;18.00;47.10
40534;DHT22;26233;51.894;10.192;2022-10-03T11:39:44;17.90;47.70
40534;DHT22;26233;51.894;10.192;2022-10-03T11:42:27;18.00;47.40
40534;DHT22;26233;51.894;10.192;2022-10-03T11:45:11;18.00;47.20
40534;DHT22;26233;51.894;10.192;2022-10-03T11:47:48;18.00;47.40
40534;DHT22;26233;51.894;10.192;2022-10-03T11:50:37;18.00;47.40
40534;DHT22;26233;51.894;10.192;2022-10-03T11:53:34;18.00;47.20
40534;DHT22;26233;51.894;10.192;2022-10-03T11:56:30;17.90;47.60
40534;DHT22;26233;51.894;10.192;2022-10-03T11:59:24;17.90;47.00
40534;DHT22;26233;51.894;10.192;2022-10-03T12:02:12;17.90;46.90
40534;DHT22;26233;51.894;10.192;2022-10-03T12:04:55;17.80;46.70
40534;DHT22;26233;51.894;10.192;2022-10-03T12:07:37;17.80;46.70
40534;DHT22;26233;51.894;10.192;2022-10-03T12:10:36;17.70;46.80
40534;DHT22;26233;51.894;10.192;2022-10-03T12:13:13;17.70;46.90
40534;DHT22;26233;51.894;10.192;2022-10-03T12:15:45;17.80;47.20
40534;DHT22;26233;51.894;10.192;2022-10-03T12:18:17;17.90;47.40
40534;DHT22;26233;51.894;10.192;2022-10-03T12:21:04;18.00;47.40
40534;DHT22;26233;51.894;10.192;2022-10-03T12:23:51;18.00;47.00
40534;DHT22;26233;51.894;10.192;2022-10-03T12:26:30;18.10;46.90
40534;DHT22;26233;51.894;10.192;2022-10-03T12:29:12;18.20;47.00
40534;DHT22;26233;51.894;10.192;2022-10-03T12:31:52;18.30;46.60
40534;DHT22;26233;51.894;10.192;2022-10-03T12:34:34;18.30;46.50
40534;DHT22;26233;51.894;10.192;2022-10-03T12:40:15;18.40;46.60
40534;DHT22;26233;51.894;10.192;2022-10-03T12:42:50;18.40;46.60
40534;DHT22;26233;51.894;10.192;2022-10-03T12:45:31;18.50;46.70
40534;DHT22;26233;51.894;10.192;2022-10-03T12:48:20;18.50;46.50
40534;DHT22;26233;51.894;10.192;2022-10-03T12:51:01;18.60;46.60
40534;DHT22;26233;51.894;10.192;2022-10-03T12:53:45;18.70;47.00
40534;DHT22;26233;51.894;10.192;2022-10-03T12:56:22;18.90;47.50
40534;DHT22;26233;51.894;10.192;2022-10-03T12:59:04;19.10;48.00
40534;DHT22;26233;51.894;10.192;2022-10-03T13:01:51;19.40;47.70
40534;DHT22;26233;51.894;10.192;2022-10-03T13:04:40;19.60;47.20
40534;DHT22;26233;51.894;10.192;2022-10-03T13:07:20;19.90;47.20
40534;DHT22;26233;51.894;10.192;2022-10-03T13:10:00;20.00;46.30
40534;DHT22;26233;51.894;10.192;2022-10-03T13:12:37;20.00;45.90
40534;DHT22;26233;51.894;10.192;2022-10-03T13:15:46;20.10;45.60
40534;DHT22;26233;51.894;10.192;2022-10-03T13:21:20;19.90;45.30
40534;DHT22;26233;51.894;10.192;2022-10-03T13:23:53;19.80;45.40
40534;DHT22;26233;51.894;10.192;2022-10-03T13:26:26;19.70;45.40
40534;DHT22;26233;51.894;10.192;2022-10-03T13:29:19;19.70;45.40
40534;DHT22;26233;51.894;10.192;2022-10-03T13:32:12;19.60;45.10
40534;DHT22;26233;51.894;10.192;2022-10-03T13:35:19;19.50;45.00
40534;DHT22;26233;51.894;10.192;2022-10-03T13:38:43;19.40;45.10
40534;DHT22;26233;51.894;10.192;2022-10-03T13:41:45;19.30;44.90
40534;DHT22;26233;51.894;10.192;2022-10-03T13:44:34;19.10;44.80
40534;DHT22;26233;51.894;10.192;2022-10-03T13:47:12;19.00;44.90
40534;DHT22;26233;51.894;10.192;2022-10-03T13:49:51;18.90;45.10
40534;DHT22;26233;51.894;10.192;2022-10-03T13:52:30;18.80;45.20
40534;DHT22;26233;51.894;10.192;2022-10-03T13:55:11;18.80;45.20
40534;DHT22;26233;51.894;10.192;2022-10-03T13:57:45;18.70;45.30
40534;DHT22;26233;51.894;10.192;2022-10-03T14:00:22;18.70;45.50
40534;DHT22;26233;51.894;10.192;2022-10-03T14:02:59;18.70;45.50
40534;DHT22;26233;51.894;10.192;2022-10-03T14:05:56;18.70;45.50
40534;DHT22;26233;51.894;10.192;2022-10-03T14:11:46;18.70;45.80
40534;DHT22;26233;51.894;10.192;2022-10-03T14:14:40;18.70;45.30
40534;DHT22;26233;51.894;10.192;2022-10-03T14:17:32;18.60;45.20
40534;DHT22;26233;51.894;10.192;2022-10-03T14:20:17;18.60;45.30
40534;DHT22;26233;51.894;10.192;2022-10-03T14:22:59;18.70;45.30
40534;DHT22;26233;51.894;10.192;2022-10-03T14:25:37;18.60;45.10
40534;DHT22;26233;51.894;10.192;2022-10-03T14:28:14;18.60;45.10
40534;DHT22;26233;51.894;10.192;2022-10-03T14:30:52;18.60;45.10
40534;DHT22;26233;51.894;10.192;2022-10-03T14:33:29;18.70;45.30
40534;DHT22;26233;51.894;10.192;2022-10-03T14:36:14;18.80;46.00
40534;DHT22;26233;51.894;10.192;2022-10-03T14:38:55;18.70;45.00
40534;DHT22;26233;51.894;10.192;2022-10-03T14:41:43;18.70;45.00
40534;DHT22;26233;51.894;10.192;2022-10-03T14:44:16;18.70;44.90
40534;DHT22;26233;51.894;10.192;2022-10-03T14:46:49;18.60;45.00
40534;DHT22;26233;51.894;10.192;2022-10-03T14:49:24;18.70;45.10
40534;DHT22;26233;51.894;10.192;2022-10-03T14:51:58;18.70;45.10
40534;DHT22;26233;51.894;10.192;2022-10-03T14:54:30;18.70;45.00
40534;DHT22;26233;51.894;10.192;2022-10-03T14:57:17;18.70;45.00
40534;DHT22;26233;51.894;10.192;2022-10-03T14:59:54;18.70;44.80
40534;DHT22;26233;51.894;10.192;2022-10-03T15:02:27;18.70;45.00
40534;DHT22;26233;51.894;10.192;2022-10-03T15:05:01;18.70;44.80
40534;DHT22;26233;51.894;10.192;2022-10-03T15:07:37;18.80;44.90
40534;DHT22;26233;51.894;10.192;2022-10-03T15:10:10;18.80;44.80
40534;DHT22;26233;51.894;10.192;2022-10-03T15:12:43;18.80;44.90
40534;DHT22;26233;51.894;10.192;2022-10-03T15:15:15;18.80;44.90
40534;DHT22;26233;51.894;10.192;2022-10-03T15:17:47;18.80;45.00
40534;DHT22;26233;51.894;10.192;2022-10-03T15:20:18;19.00;45.20
40534;DHT22;26233;51.894;10.192;2022-10-03T15:22:50;19.00;45.20
40534;DHT22;26233;51.894;10.192;2022-10-03T15:25:22;19.00;45.20
40534;DHT22;26233;51.894;10.192;2022-10-03T15:27:55;19.10;45.00
40534;DHT22;26233;51.894;10.192;2022-10-03T15:30:27;19.20;44.90
40534;DHT22;26233;51.894;10.192;2022-10-03T15:33:04;19.20;44.90
40534;DHT22;26233;51.894;10.192;2022-10-03T15:35:36;19.20;44.60
40534;DHT22;26233;51.894;10.192;2022-10-03T15:38:10;19.20;44.60
40534;DHT22;26233;51.894;10.192;2022-10-03T15:40:45;19.10;44.40
40534;DHT22;26233;51.894;10.192;2022-10-03T15:43:27;19.10;44.40
40534;DHT22;26233;51.894;10.192;2022-10-03T15:46:01;19.00;44.20
40534;DHT22;26233;51.894;10.192;2022-10-03T15:48:32;19.00;44.20
40534;DHT22;26233;51.894;10.192;2022-10-03T15:51:16;18.90;44.20
40534;DHT22;26233;51.894;10.192;2022-10-03T15:53:47;18.80;44.00
40534;DHT22;26233;51.894;10.192;2022-10-03T15:56:19;18.70;44.10
40534;DHT22;26233;51.894;10.192;2022-10-03T15:58:53;18.60;44.10
40534;DHT22;26233;51.894;10.192;2022-10-03T16:01:25;18.60;44.10
40534;DHT22;26233;51.894;10.192;2022-10-03T16:03:56;18.50;44.10
40534;DHT22;26233;51.894;10.192;2022-10-03T16:06:32;18.50;44.20
40534;DHT22;26233;51.894;10.192;2022-10-03T16:09:12;18.40;44.10
40534;DHT22;26233;51.894;10.192;2022-10-03T16:11:49;18.30;44.20
40534;DHT22;26233;51.894;10.192;2022-10-03T16:14:26;18.30;44.20
40534;DHT22;26233;51.894;10.192;2022-10-03T16:16:56;18.30;44.30
40534;DHT22;26233;51.894;10.192;2022-10-03T16:19:36;18.20;44.20
40534;DHT22;26233;51.894;10.192;2022-10-03T16:22:11;18.20;44.20
40534;DHT22;26233;51.894;10.192;2022-10-03T16:24:50;18.10;44.20
40534;DHT22;26233;51.894;10.192;2022-10-03T16:27:25;18.00;44.20
40534;DHT22;26233;51.894;10.192;2022-10-03T16:30:11;18.00;44.20
40534;DHT22;26233;51.894;10.192;2022-10-03T16:32:47;18.00;44.20
40534;DHT22;26233;51.894;10.192;2022-10-03T16:35:32;17.90;44.20
40534;DHT22;26233;51.894;10.192;2022-10-03T16:38:05;17.80;44.20
40534;DHT22;26233;51.894;10.192;2022-10-03T16:40:34;17.80;44.30
40534;DHT22;26233;51.894;10.192;2022-10-03T16:43:04;17.70;44.30
40534;DHT22;26233;51.894;10.192;2022-10-03T16:45:39;17.70;44.40
40534;DHT22;26233;51.894;10.192;2022-10-03T16:48:11;17.70;44.50
40534;DHT22;26233;51.894;10.192;2022-10-03T16:51:02;17.70;45.20
40534;DHT22;26233;51.894;10.192;2022-10-03T16:53:30;17.60;44.50
40534;DHT22;26233;51.894;10.192;2022-10-03T16:56:02;17.60;44.50
40534;DHT22;26233;51.894;10.192;2022-10-03T16:58:32;17.60;44.60
40534;DHT22;26233;51.894;10.192;2022-10-03T17:01:06;17.50;44.50
40534;DHT22;26233;51.894;10.192;2022-10-03T17:03:37;17.50;44.60
40534;DHT22;26233;51.894;10.192;2022-10-03T17:06:12;17.40;44.50
40534;DHT22;26233;51.894;10.192;2022-10-03T17:08:47;17.40;44.60
40534;DHT22;26233;51.894;10.192;2022-10-03T17:11:18;17.40;44.70
40534;DHT22;26233;51.894;10.192;2022-10-03T17:13:50;17.40;44.80
40534;DHT22;26233;51.894;10.192;2022-10-03T17:16:28;17.30;45.30
40534;DHT22;26233;51.894;10.192;2022-10-03T17:19:11;17.30;44.80
40534;DHT22;26233;51.894;10.192;2022-10-03T17:21:45;17.30;45.00
40534;DHT22;26233;51.894;10.192;2022-10-03T17:24:23;17.30;44.90
40534;DHT22;26233;51.894;10.192;2022-10-03T17:27:00;17.30;45.50
40534;DHT22;26233;51.894;10.192;2022-10-03T17:29:33;17.30;45.00
40534;DHT22;26233;51.894;10.192;2022-10-03T17:32:13;17.20;44.80
40534;DHT22;26233;51.894;10.192;2022-10-03T17:34:50;17.20;44.90
40534;DHT22;26233;51.894;10.192;2022-10-03T17:40:53;17.20;45.00
40534;DHT22;26233;51.894;10.192;2022-10-03T17:43:34;17.10;45.00
40534;DHT22;26233;51.894;10.192;2022-10-03T17:46:12;17.10;45.00
40534;DHT22;26233;51.894;10.192;2022-10-03T17:48:51;17.10;45.10
40534;DHT22;26233;51.894;10.192;2022-10-03T17:51:29;17.00;45.00
40534;DHT22;26233;51.894;10.192;2022-10-03T17:54:04;17.00;45.10
40534;DHT22;26233;51.894;10.192;2022-10-03T17:56:40;16.90;45.00
40534;DHT22;26233;51.894;10.192;2022-10-03T17:59:13;16.90;45.10
40534;DHT22;26233;51.894;10.192;2022-10-03T18:01:47;16.90;45.20
40534;DHT22;26233;51.894;10.192;2022-10-03T18:04:18;16.80;45.20
40534;DHT22;26233;51.894;10.192;2022-10-03T18:06:49;16.80;45.30
40534;DHT22;26233;51.894;10.192;2022-10-03T18:09:30;16.80;45.30
40534;DHT22;26233;51.894;10.192;2022-10-03T18:12:10;16.70;45.40
40534;DHT22;26233;51.894;10.192;2022-10-03T18:14:50;16.70;45.80
40534;DHT22;26233;51.894;10.192;2022-10-03T18:17:32;16.70;45.50
40534;DHT22;26233;51.894;10.192;2022-10-03T18:20:18;16.60;45.50
40534;DHT22;26233;51.894;10.192;2022-10-03T18:22:54;16.60;45.60
40534;DHT22;26233;51.894;10.192;2022-10-03T18:25:29;16.60;45.60
40534;DHT22;26233;51.894;10.192;2022-10-03T18:28:18;16.60;45.60
40534;DHT22;26233;51.894;10.192;2022-10-03T18:30:50;16.60;45.60
40534;DHT22;26233;51.894;10.192;2022-10-03T18:33:22;16.60;45.60
40534;DHT22;26233;51.894;10.192;2022-10-03T18:35:52;16.60;45.60
40534;DHT22;26233;51.894;10.192;2022-10-03T18:38:21;16.60;45.70
40534;DHT22;26233;51.894;10.192;2022-10-03T18:40:52;16.60;45.60
40534;DHT22;26233;51.894;10.192;2022-10-03T18:43:32;16.60;45.60
40534;DHT22;26233;51.894;10.192;2022-10-03T18:46:08;16.70;45.70
40534;DHT22;26233;51.894;10.192;2022-10-03T18:48:50;16.70;45.70
40534;DHT22;26233;51.894;10.192;2022-10-03T18:51:29;16.70;45.70
40534;DHT22;26233;51.894;10.192;2022-10-03T18:54:02;16.70;45.70
40534;DHT22;26233;51.894;10.192;2022-10-03T18:56:33;16.70;45.60
40534;DHT22;26233;51.894;10.192;2022-10-03T18:59:14;16.70;45.60
40534;DHT22;26233;51.894;10.192;2022-10-03T19:01:50;16.70;45.70
40534;DHT22;26233;51.894;10.192;2022-10-03T19:04:27;16.70;45.60
40534;DHT22;26233;51.894;10.192;2022-10-03T19:07:03;16.70;45.60
40534;DHT22;26233;51.894;10.192;2022-10-03T19:09:42;16.70;45.60
40534;DHT22;26233;51.894;10.192;2022-10-03T19:12:21;16.60;45.50
40534;DHT22;26233;51.894;10.192;2022-10-03T19:15:01;16.70;45.50
40534;DHT22;26233;51.894;10.192;2022-10-03T19:17:41;16.60;45.50
40534;DHT22;26233;51.894;10.192;2022-10-03T19:20:21;16.60;45.50
40534;DHT22;26233;51.894;10.192;2022-10-03T19:22:59;16.50;45.50
40534;DHT22;26233;51.894;10.192;2022-10-03T19:25:32;16.50;45.50
40534;DHT22;26233;51.894;10.192;2022-10-03T19:28:06;16.50;45.50
40534;DHT22;26233;51.894;10.192;2022-10-03T19:30:42;16.50;45.50
40534;DHT22;26233;51.894;10.192;2022-10-03T19:33:14;16.50;45.60
40534;DHT22;26233;51.894;10.192;2022-10-03T19:35:47;16.40;45.50
40534;DHT22;26233;51.894;10.192;2022-10-03T19:38:20;16.40;45.50
40534;DHT22;26233;51.894;10.192;2022-10-03T19:40:53;16.40;45.50
40534;DHT22;26233;51.894;10.192;2022-10-03T19:43:34;16.40;45.50
40534;DHT22;26233;51.894;10.192;2022-10-03T19:49:22;16.30;45.50
40534;DHT22;26233;51.894;10.192;2022-10-03T19:52:16;16.10;45.40